Terminal Aerodrome Forecast
Issued by NWS

Home | Current Version | Previous Version | Text Only | Print | Product List | Glossary On
Versions: 1 2 3 4 5 6 7 8 9 10 11 12 13 14
140
FTUS43 KIND 062335
TAFBMG
TAF
KBMG 062335Z 0700/0724 24004KT P6SM SKC
     FM071100 23004KT P6SM SCT150
     FM071400 23010KT P6SM BKN150
     FM072100 23010KT P6SM SCT040 BKN120
      AMD LTD TO CLD VIS AND WIND 0702/0714=

USA.gov is the U.S. government's official web portal to all federal, state and local government web resources and services.